首页
METAR-TAF:

METAR-TAF

机场 :

Fort Chipewyan, 艾伯塔, 加拿大

纬度: 58-46N, 经度: 111-07W, 海拔: 232米

当前天气观测

该预报发布于51分钟前的01:06 UTC
风速5节,风向东转东南
温度 -8°C
湿度 92%
气压 1007 hPa
能見度: 14.5公里
多云层高于1100英尺
阴天层高于2300英尺

METAR: CYPY 230106Z AUTO 11005KT 9SM BKN011 OVC023 M08/M09 A2973 RMK SLP092

时间: 18:57 (01:57 UTC)

预报

该预报发布于2小时和19分钟前的23:38 UTC
预报有效从23日的 00点(UTC)到 23日的 07点(UTC)
风速3节,风向多变
能見度: 10公里
阴天层高于1000英尺
短暂存在
从 23日的 00点(UTC)到 23日的 07点(UTC)
能見度: 3.2公里
阴天层高于300英尺
小雪, 轻雾

TAF: CYPY 222338Z 2300/2307 VRB03KT P6SM OVC010 TEMPO 2300/2307 2SM -SN BR OVC003 RMK FCST BASED ON AUTO OBS. NXT FCST WILL BE ISSUED AT 231245Z

超过4000个机场的气象观测和天气预报(METAR&TAF报告)。

可查询的气象台以黄色和红色小点在地图上表示。

将鼠标移到小点上方,可查看气象台名称。

然后点击查看天气观测和预报。

如需切换地图:点击带黑十字的绿色按钮放大地图;点击带横线的绿色按钮缩小地图;或者点击绿色箭头查看邻近地区的地图。


METAR-TAF: